sensor_id;sensor_type;location;lat;lon;timestamp;P1;durP1;ratioP1;P2;durP2;ratioP2
67378;SDS011;54262;44.642;-0.974;2023-06-24T00:01:42;3.05;;;2.85;;
67378;SDS011;54262;44.642;-0.974;2023-06-24T00:04:07;3.28;;;2.97;;
67378;SDS011;54262;44.642;-0.974;2023-06-24T00:06:33;3.38;;;3.22;;
67378;SDS011;54262;44.642;-0.974;2023-06-24T00:08:59;4.78;;;3.03;;
67378;SDS011;54262;44.642;-0.974;2023-06-24T00:11:30;3.42;;;3.22;;
67378;SDS011;54262;44.642;-0.974;2023-06-24T00:13:56;4.10;;;3.53;;
67378;SDS011;54262;44.642;-0.974;2023-06-24T00:16:22;7.50;;;3.38;;
67378;SDS011;54262;44.642;-0.974;2023-06-24T00:18:52;3.85;;;3.55;;
67378;SDS011;54262;44.642;-0.974;2023-06-24T00:21:19;3.40;;;3.20;;
67378;SDS011;54262;44.642;-0.974;2023-06-24T00:23:44;3.67;;;3.47;;
67378;SDS011;54262;44.642;-0.974;2023-06-24T00:26:10;3.20;;;3.10;;
67378;SDS011;54262;44.642;-0.974;2023-06-24T00:28:36;3.63;;;3.33;;
67378;SDS011;54262;44.642;-0.974;2023-06-24T00:31:04;3.58;;;3.38;;
67378;SDS011;54262;44.642;-0.974;2023-06-24T00:33:30;3.50;;;3.30;;
67378;SDS011;54262;44.642;-0.974;2023-06-24T00:36:01;3.58;;;3.38;;
67378;SDS011;54262;44.642;-0.974;2023-06-24T00:38:29;3.88;;;3.58;;
67378;SDS011;54262;44.642;-0.974;2023-06-24T00:40:57;3.30;;;3.10;;
67378;SDS011;54262;44.642;-0.974;2023-06-24T00:43:25;3.65;;;3.45;;
67378;SDS011;54262;44.642;-0.974;2023-06-24T00:45:51;3.90;;;3.70;;
67378;SDS011;54262;44.642;-0.974;2023-06-24T00:48:18;3.53;;;3.33;;
67378;SDS011;54262;44.642;-0.974;2023-06-24T00:50:45;4.25;;;4.05;;
67378;SDS011;54262;44.642;-0.974;2023-06-24T00:53:11;4.20;;;3.80;;
67378;SDS011;54262;44.642;-0.974;2023-06-24T00:55:37;6.15;;;3.42;;
67378;SDS011;54262;44.642;-0.974;2023-06-24T00:58:03;3.72;;;3.63;;
67378;SDS011;54262;44.642;-0.974;2023-06-24T01:00:32;3.70;;;3.50;;
67378;SDS011;54262;44.642;-0.974;2023-06-24T01:02:59;4.13;;;3.83;;
67378;SDS011;54262;44.642;-0.974;2023-06-24T01:05:25;3.83;;;3.63;;
67378;SDS011;54262;44.642;-0.974;2023-06-24T01:07:53;3.80;;;3.60;;
67378;SDS011;54262;44.642;-0.974;2023-06-24T01:10:21;3.80;;;3.50;;
67378;SDS011;54262;44.642;-0.974;2023-06-24T01:12:48;3.67;;;3.50;;
67378;SDS011;54262;44.642;-0.974;2023-06-24T01:15:14;3.97;;;3.33;;
67378;SDS011;54262;44.642;-0.974;2023-06-24T01:17:59;3.85;;;3.53;;
67378;SDS011;54262;44.642;-0.974;2023-06-24T01:20:55;3.60;;;3.40;;
67378;SDS011;54262;44.642;-0.974;2023-06-24T01:33:55;3.83;;;3.47;;
67378;SDS011;54262;44.642;-0.974;2023-06-24T01:36:26;3.65;;;3.45;;
67378;SDS011;54262;44.642;-0.974;2023-06-24T01:38:58;3.65;;;3.40;;
67378;SDS011;54262;44.642;-0.974;2023-06-24T01:41:34;3.88;;;3.58;;
67378;SDS011;54262;44.642;-0.974;2023-06-24T01:44:08;4.88;;;3.60;;
67378;SDS011;54262;44.642;-0.974;2023-06-24T01:46:37;3.70;;;3.50;;
67378;SDS011;54262;44.642;-0.974;2023-06-24T01:49:05;3.25;;;3.15;;
67378;SDS011;54262;44.642;-0.974;2023-06-24T01:51:34;3.70;;;3.40;;
67378;SDS011;54262;44.642;-0.974;2023-06-24T01:54:02;3.65;;;3.42;;
67378;SDS011;54262;44.642;-0.974;2023-06-24T01:56:34;3.42;;;3.30;;
67378;SDS011;54262;44.642;-0.974;2023-06-24T01:59:03;3.90;;;3.60;;
67378;SDS011;54262;44.642;-0.974;2023-06-24T02:01:30;4.10;;;3.83;;
67378;SDS011;54262;44.642;-0.974;2023-06-24T02:03:58;3.35;;;3.05;;
67378;SDS011;54262;44.642;-0.974;2023-06-24T02:06:26;3.15;;;3.00;;
67378;SDS011;54262;44.642;-0.974;2023-06-24T02:08:55;3.30;;;3.10;;
67378;SDS011;54262;44.642;-0.974;2023-06-24T02:11:23;3.70;;;3.50;;
67378;SDS011;54262;44.642;-0.974;2023-06-24T02:13:50;3.42;;;3.28;;
67378;SDS011;54262;44.642;-0.974;2023-06-24T02:16:18;3.85;;;3.65;;
67378;SDS011;54262;44.642;-0.974;2023-06-24T02:18:45;3.50;;;3.40;;
67378;SDS011;54262;44.642;-0.974;2023-06-24T02:21:13;4.70;;;3.58;;
67378;SDS011;54262;44.642;-0.974;2023-06-24T02:23:41;3.88;;;3.58;;
67378;SDS011;54262;44.642;-0.974;2023-06-24T02:26:07;4.20;;;4.00;;
67378;SDS011;54262;44.642;-0.974;2023-06-24T02:28:34;3.75;;;3.50;;
67378;SDS011;54262;44.642;-0.974;2023-06-24T02:31:02;4.07;;;3.78;;
67378;SDS011;54262;44.642;-0.974;2023-06-24T02:33:32;3.63;;;3.20;;
67378;SDS011;54262;44.642;-0.974;2023-06-24T02:35:57;3.67;;;3.47;;
67378;SDS011;54262;44.642;-0.974;2023-06-24T02:38:23;4.18;;;3.97;;
67378;SDS011;54262;44.642;-0.974;2023-06-24T02:40:51;4.22;;;3.83;;
67378;SDS011;54262;44.642;-0.974;2023-06-24T02:43:17;3.40;;;3.20;;
67378;SDS011;54262;44.642;-0.974;2023-06-24T02:45:50;4.28;;;3.97;;
67378;SDS011;54262;44.642;-0.974;2023-06-24T02:48:18;3.65;;;3.47;;
67378;SDS011;54262;44.642;-0.974;2023-06-24T02:50:45;4.63;;;4.13;;
67378;SDS011;54262;44.642;-0.974;2023-06-24T02:53:12;3.97;;;3.78;;
67378;SDS011;54262;44.642;-0.974;2023-06-24T02:55:39;4.93;;;4.43;;
67378;SDS011;54262;44.642;-0.974;2023-06-24T02:58:06;4.70;;;4.30;;
67378;SDS011;54262;44.642;-0.974;2023-06-24T03:00:33;3.47;;;3.38;;
67378;SDS011;54262;44.642;-0.974;2023-06-24T03:03:00;4.10;;;3.90;;
67378;SDS011;54262;44.642;-0.974;2023-06-24T03:05:27;4.30;;;4.00;;
67378;SDS011;54262;44.642;-0.974;2023-06-24T03:07:55;4.20;;;4.00;;
67378;SDS011;54262;44.642;-0.974;2023-06-24T03:10:25;3.92;;;3.67;;
67378;SDS011;54262;44.642;-0.974;2023-06-24T03:12:51;4.28;;;4.07;;
67378;SDS011;54262;44.642;-0.974;2023-06-24T03:15:17;3.97;;;3.78;;
67378;SDS011;54262;44.642;-0.974;2023-06-24T03:17:42;4.50;;;4.20;;
67378;SDS011;54262;44.642;-0.974;2023-06-24T03:20:09;4.07;;;3.88;;
67378;SDS011;54262;44.642;-0.974;2023-06-24T03:22:35;4.05;;;3.85;;
67378;SDS011;54262;44.642;-0.974;2023-06-24T03:25:01;4.22;;;4.00;;
67378;SDS011;54262;44.642;-0.974;2023-06-24T03:27:27;4.22;;;3.92;;
67378;SDS011;54262;44.642;-0.974;2023-06-24T03:29:53;4.13;;;3.92;;
67378;SDS011;54262;44.642;-0.974;2023-06-24T03:32:19;4.68;;;4.28;;
67378;SDS011;54262;44.642;-0.974;2023-06-24T03:34:44;4.30;;;4.10;;
67378;SDS011;54262;44.642;-0.974;2023-06-24T03:37:10;8.18;;;4.50;;
67378;SDS011;54262;44.642;-0.974;2023-06-24T03:39:36;4.07;;;3.70;;
67378;SDS011;54262;44.642;-0.974;2023-06-24T03:42:04;8.55;;;3.83;;
67378;SDS011;54262;44.642;-0.974;2023-06-24T03:44:29;4.30;;;4.10;;
67378;SDS011;54262;44.642;-0.974;2023-06-24T03:46:57;6.45;;;4.30;;
67378;SDS011;54262;44.642;-0.974;2023-06-24T03:49:23;4.50;;;4.30;;
67378;SDS011;54262;44.642;-0.974;2023-06-24T03:51:49;3.90;;;3.65;;
67378;SDS011;54262;44.642;-0.974;2023-06-24T03:54:14;4.57;;;4.28;;
67378;SDS011;54262;44.642;-0.974;2023-06-24T03:56:43;4.78;;;4.57;;
67378;SDS011;54262;44.642;-0.974;2023-06-24T03:59:09;4.13;;;3.92;;
67378;SDS011;54262;44.642;-0.974;2023-06-24T04:01:35;4.03;;;3.83;;
67378;SDS011;54262;44.642;-0.974;2023-06-24T04:04:01;4.05;;;3.75;;
67378;SDS011;54262;44.642;-0.974;2023-06-24T04:06:30;4.28;;;4.03;;
67378;SDS011;54262;44.642;-0.974;2023-06-24T04:08:56;4.30;;;4.10;;
67378;SDS011;54262;44.642;-0.974;2023-06-24T04:11:22;4.47;;;4.28;;
67378;SDS011;54262;44.642;-0.974;2023-06-24T04:13:47;4.05;;;3.85;;
67378;SDS011;54262;44.642;-0.974;2023-06-24T04:16:14;4.00;;;3.80;;
67378;SDS011;54262;44.642;-0.974;2023-06-24T04:18:40;4.53;;;4.32;;
67378;SDS011;54262;44.642;-0.974;2023-06-24T04:21:06;4.95;;;4.38;;
67378;SDS011;54262;44.642;-0.974;2023-06-24T04:23:31;4.22;;;3.80;;
67378;SDS011;54262;44.642;-0.974;2023-06-24T04:25:58;4.65;;;4.25;;
67378;SDS011;54262;44.642;-0.974;2023-06-24T04:28:23;4.32;;;4.03;;
67378;SDS011;54262;44.642;-0.974;2023-06-24T04:30:49;4.65;;;4.43;;
67378;SDS011;54262;44.642;-0.974;2023-06-24T04:33:15;3.95;;;3.75;;
67378;SDS011;54262;44.642;-0.974;2023-06-24T04:35:40;4.60;;;4.40;;
67378;SDS011;54262;44.642;-0.974;2023-06-24T04:38:06;4.47;;;4.28;;
67378;SDS011;54262;44.642;-0.974;2023-06-24T04:40:32;4.07;;;3.88;;
67378;SDS011;54262;44.642;-0.974;2023-06-24T04:43:00;4.18;;;3.90;;
67378;SDS011;54262;44.642;-0.974;2023-06-24T04:45:25;6.38;;;4.00;;
67378;SDS011;54262;44.642;-0.974;2023-06-24T04:47:53;4.43;;;4.13;;
67378;SDS011;54262;44.642;-0.974;2023-06-24T04:50:19;4.60;;;4.38;;
67378;SDS011;54262;44.642;-0.974;2023-06-24T04:52:45;5.40;;;5.10;;
67378;SDS011;54262;44.642;-0.974;2023-06-24T04:55:10;5.07;;;3.42;;
67378;SDS011;54262;44.642;-0.974;2023-06-24T04:57:36;4.63;;;4.43;;
67378;SDS011;54262;44.642;-0.974;2023-06-24T05:00:02;4.40;;;4.20;;
67378;SDS011;54262;44.642;-0.974;2023-06-24T05:02:28;4.40;;;4.20;;
67378;SDS011;54262;44.642;-0.974;2023-06-24T05:04:54;4.75;;;4.53;;
67378;SDS011;54262;44.642;-0.974;2023-06-24T05:07:19;3.78;;;3.58;;
67378;SDS011;54262;44.642;-0.974;2023-06-24T05:09:48;4.20;;;4.00;;
67378;SDS011;54262;44.642;-0.974;2023-06-24T05:12:14;4.38;;;4.07;;
67378;SDS011;54262;44.642;-0.974;2023-06-24T05:14:40;4.55;;;4.35;;
67378;SDS011;54262;44.642;-0.974;2023-06-24T05:17:08;4.15;;;3.90;;
67378;SDS011;54262;44.642;-0.974;2023-06-24T05:19:34;4.22;;;4.03;;
67378;SDS011;54262;44.642;-0.974;2023-06-24T05:22:00;5.03;;;4.57;;
67378;SDS011;54262;44.642;-0.974;2023-06-24T05:24:25;3.97;;;3.58;;
67378;SDS011;54262;44.642;-0.974;2023-06-24T05:26:51;4.97;;;3.63;;
67378;SDS011;54262;44.642;-0.974;2023-06-24T05:29:17;3.85;;;3.67;;
67378;SDS011;54262;44.642;-0.974;2023-06-24T05:31:43;3.85;;;3.65;;
67378;SDS011;54262;44.642;-0.974;2023-06-24T05:34:09;3.90;;;3.70;;
67378;SDS011;54262;44.642;-0.974;2023-06-24T05:36:35;7.22;;;4.57;;
67378;SDS011;54262;44.642;-0.974;2023-06-24T05:39:00;4.40;;;4.00;;
67378;SDS011;54262;44.642;-0.974;2023-06-24T05:41:26;7.15;;;3.67;;
67378;SDS011;54262;44.642;-0.974;2023-06-24T05:44:06;3.70;;;3.50;;
67378;SDS011;54262;44.642;-0.974;2023-06-24T05:46:33;3.90;;;3.65;;
67378;SDS011;54262;44.642;-0.974;2023-06-24T05:49:02;3.83;;;3.63;;
67378;SDS011;54262;44.642;-0.974;2023-06-24T05:51:28;3.95;;;3.75;;
67378;SDS011;54262;44.642;-0.974;2023-06-24T05:53:53;3.75;;;3.55;;
67378;SDS011;54262;44.642;-0.974;2023-06-24T05:56:19;3.30;;;3.20;;
67378;SDS011;54262;44.642;-0.974;2023-06-24T05:58:46;3.65;;;3.45;;
67378;SDS011;54262;44.642;-0.974;2023-06-24T06:01:12;3.78;;;3.45;;
67378;SDS011;54262;44.642;-0.974;2023-06-24T06:03:38;5.57;;;3.97;;
67378;SDS011;54262;44.642;-0.974;2023-06-24T06:06:04;3.55;;;3.38;;
67378;SDS011;54262;44.642;-0.974;2023-06-24T06:08:29;6.85;;;3.22;;
67378;SDS011;54262;44.642;-0.974;2023-06-24T06:10:55;3.47;;;3.30;;
67378;SDS011;54262;44.642;-0.974;2023-06-24T06:13:21;3.72;;;3.53;;
67378;SDS011;54262;44.642;-0.974;2023-06-24T06:15:47;3.40;;;3.25;;
67378;SDS011;54262;44.642;-0.974;2023-06-24T06:18:12;3.28;;;3.08;;
67378;SDS011;54262;44.642;-0.974;2023-06-24T06:20:38;3.95;;;3.65;;
67378;SDS011;54262;44.642;-0.974;2023-06-24T06:23:04;3.47;;;3.35;;
67378;SDS011;54262;44.642;-0.974;2023-06-24T06:25:29;3.28;;;3.17;;
67378;SDS011;54262;44.642;-0.974;2023-06-24T06:27:55;4.88;;;3.40;;
67378;SDS011;54262;44.642;-0.974;2023-06-24T06:30:21;3.05;;;2.95;;
67378;SDS011;54262;44.642;-0.974;2023-06-24T06:32:46;3.35;;;3.15;;
67378;SDS011;54262;44.642;-0.974;2023-06-24T06:35:12;3.00;;;2.80;;
67378;SDS011;54262;44.642;-0.974;2023-06-24T06:37:38;1.73;;;1.67;;
67378;SDS011;54262;44.642;-0.974;2023-06-24T06:40:04;3.10;;;2.90;;
67378;SDS011;54262;44.642;-0.974;2023-06-24T06:42:30;3.17;;;2.97;;
67378;SDS011;54262;44.642;-0.974;2023-06-24T06:44:58;3.22;;;3.03;;
67378;SDS011;54262;44.642;-0.974;2023-06-24T06:47:23;4.15;;;2.95;;
67378;SDS011;54262;44.642;-0.974;2023-06-24T06:49:51;11.00;;;2.33;;
67378;SDS011;54262;44.642;-0.974;2023-06-24T06:52:17;3.45;;;3.25;;
67378;SDS011;54262;44.642;-0.974;2023-06-24T06:54:42;2.85;;;2.75;;
67378;SDS011;54262;44.642;-0.974;2023-06-24T06:57:08;3.33;;;3.13;;
67378;SDS011;54262;44.642;-0.974;2023-06-24T06:59:33;3.10;;;3.00;;
67378;SDS011;54262;44.642;-0.974;2023-06-24T07:01:59;3.92;;;2.83;;
67378;SDS011;54262;44.642;-0.974;2023-06-24T07:04:25;3.13;;;2.95;;
67378;SDS011;54262;44.642;-0.974;2023-06-24T07:06:50;2.88;;;2.75;;
67378;SDS011;54262;44.642;-0.974;2023-06-24T07:09:16;3.50;;;3.28;;
67378;SDS011;54262;44.642;-0.974;2023-06-24T07:11:42;2.83;;;2.70;;
67378;SDS011;54262;44.642;-0.974;2023-06-24T07:14:08;4.35;;;3.95;;
67378;SDS011;54262;44.642;-0.974;2023-06-24T07:16:34;4.13;;;3.88;;
67378;SDS011;54262;44.642;-0.974;2023-06-24T07:19:00;3.55;;;2.92;;
67378;SDS011;54262;44.642;-0.974;2023-06-24T07:21:26;3.10;;;3.00;;
67378;SDS011;54262;44.642;-0.974;2023-06-24T07:23:52;3.08;;;2.97;;
67378;SDS011;54262;44.642;-0.974;2023-06-24T07:26:17;5.20;;;3.65;;
67378;SDS011;54262;44.642;-0.974;2023-06-24T07:28:43;3.38;;;3.17;;
67378;SDS011;54262;44.642;-0.974;2023-06-24T07:31:09;3.65;;;3.45;;
67378;SDS011;54262;44.642;-0.974;2023-06-24T07:33:34;4.97;;;3.63;;
67378;SDS011;54262;44.642;-0.974;2023-06-24T07:36:00;2.80;;;2.70;;
67378;SDS011;54262;44.642;-0.974;2023-06-24T07:38:27;3.38;;;3.20;;
67378;SDS011;54262;44.642;-0.974;2023-06-24T07:40:53;3.78;;;3.47;;
67378;SDS011;54262;44.642;-0.974;2023-06-24T07:43:19;6.25;;;3.35;;
67378;SDS011;54262;44.642;-0.974;2023-06-24T07:45:47;2.92;;;2.83;;
67378;SDS011;54262;44.642;-0.974;2023-06-24T07:48:15;3.28;;;3.08;;
67378;SDS011;54262;44.642;-0.974;2023-06-24T07:50:43;3.53;;;3.33;;
67378;SDS011;54262;44.642;-0.974;2023-06-24T07:53:09;5.18;;;3.47;;
67378;SDS011;54262;44.642;-0.974;2023-06-24T07:55:34;3.25;;;2.67;;
67378;SDS011;54262;44.642;-0.974;2023-06-24T07:58:00;3.33;;;3.10;;
67378;SDS011;54262;44.642;-0.974;2023-06-24T08:00:27;3.90;;;3.15;;
67378;SDS011;54262;44.642;-0.974;2023-06-24T08:02:53;8.63;;;3.50;;
67378;SDS011;54262;44.642;-0.974;2023-06-24T08:05:20;3.13;;;2.92;;
67378;SDS011;54262;44.642;-0.974;2023-06-24T08:07:46;2.65;;;2.55;;
67378;SDS011;54262;44.642;-0.974;2023-06-24T08:10:12;3.60;;;2.85;;
67378;SDS011;54262;44.642;-0.974;2023-06-24T08:12:37;3.00;;;2.80;;
67378;SDS011;54262;44.642;-0.974;2023-06-24T08:15:03;4.55;;;2.83;;
67378;SDS011;54262;44.642;-0.974;2023-06-24T08:17:29;3.15;;;2.80;;
67378;SDS011;54262;44.642;-0.974;2023-06-24T08:19:55;5.22;;;2.95;;
67378;SDS011;54262;44.642;-0.974;2023-06-24T08:22:20;2.80;;;2.60;;
67378;SDS011;54262;44.642;-0.974;2023-06-24T08:24:46;2.33;;;2.20;;
67378;SDS011;54262;44.642;-0.974;2023-06-24T08:27:15;2.42;;;2.33;;
67378;SDS011;54262;44.642;-0.974;2023-06-24T08:29:40;2.42;;;2.33;;
67378;SDS011;54262;44.642;-0.974;2023-06-24T08:32:06;3.45;;;2.13;;
67378;SDS011;54262;44.642;-0.974;2023-06-24T08:34:32;2.10;;;2.00;;
67378;SDS011;54262;44.642;-0.974;2023-06-24T08:36:58;2.83;;;2.72;;
67378;SDS011;54262;44.642;-0.974;2023-06-24T08:39:24;2.42;;;2.22;;
67378;SDS011;54262;44.642;-0.974;2023-06-24T08:41:49;2.85;;;2.65;;
67378;SDS011;54262;44.642;-0.974;2023-06-24T08:44:15;2.75;;;2.63;;
67378;SDS011;54262;44.642;-0.974;2023-06-24T08:46:43;3.80;;;3.00;;
67378;SDS011;54262;44.642;-0.974;2023-06-24T08:52:04;2.55;;;2.42;;
67378;SDS011;54262;44.642;-0.974;2023-06-24T08:54:41;2.40;;;2.30;;
67378;SDS011;54262;44.642;-0.974;2023-06-24T08:57:10;2.80;;;2.60;;
67378;SDS011;54262;44.642;-0.974;2023-06-24T08:59:39;2.20;;;2.10;;
67378;SDS011;54262;44.642;-0.974;2023-06-24T09:02:06;2.33;;;2.22;;
67378;SDS011;54262;44.642;-0.974;2023-06-24T09:04:31;2.30;;;2.20;;
67378;SDS011;54262;44.642;-0.974;2023-06-24T09:06:57;2.60;;;2.50;;
67378;SDS011;54262;44.642;-0.974;2023-06-24T09:09:23;2.42;;;2.33;;
67378;SDS011;54262;44.642;-0.974;2023-06-24T09:11:53;2.58;;;2.40;;
67378;SDS011;54262;44.642;-0.974;2023-06-24T09:14:19;3.42;;;3.03;;
67378;SDS011;54262;44.642;-0.974;2023-06-24T09:16:55;4.18;;;2.45;;
67378;SDS011;54262;44.642;-0.974;2023-06-24T09:19:23;2.60;;;2.50;;
67378;SDS011;54262;44.642;-0.974;2023-06-24T09:21:50;2.85;;;2.22;;
67378;SDS011;54262;44.642;-0.974;2023-06-24T09:24:17;5.88;;;2.50;;
67378;SDS011;54262;44.642;-0.974;2023-06-24T09:26:44;2.42;;;2.33;;
67378;SDS011;54262;44.642;-0.974;2023-06-24T09:29:10;2.38;;;2.28;;
67378;SDS011;54262;44.642;-0.974;2023-06-24T09:31:45;2.70;;;2.60;;
67378;SDS011;54262;44.642;-0.974;2023-06-24T09:34:15;3.00;;;2.80;;
67378;SDS011;54262;44.642;-0.974;2023-06-24T09:36:42;4.65;;;2.50;;
67378;SDS011;54262;44.642;-0.974;2023-06-24T09:39:09;3.40;;;3.20;;
67378;SDS011;54262;44.642;-0.974;2023-06-24T09:41:35;2.33;;;2.22;;
67378;SDS011;54262;44.642;-0.974;2023-06-24T09:44:01;2.63;;;2.53;;
67378;SDS011;54262;44.642;-0.974;2023-06-24T09:46:28;2.92;;;2.72;;
67378;SDS011;54262;44.642;-0.974;2023-06-24T09:48:57;2.63;;;2.53;;
67378;SDS011;54262;44.642;-0.974;2023-06-24T09:51:23;8.35;;;2.60;;
67378;SDS011;54262;44.642;-0.974;2023-06-24T09:53:52;2.63;;;2.40;;
67378;SDS011;54262;44.642;-0.974;2023-06-24T09:56:21;4.55;;;2.83;;
67378;SDS011;54262;44.642;-0.974;2023-06-24T09:58:47;4.35;;;2.60;;
67378;SDS011;54262;44.642;-0.974;2023-06-24T10:01:12;2.88;;;2.72;;
67378;SDS011;54262;44.642;-0.974;2023-06-24T10:03:39;4.30;;;2.55;;
67378;SDS011;54262;44.642;-0.974;2023-06-24T10:06:05;2.50;;;2.40;;
67378;SDS011;54262;44.642;-0.974;2023-06-24T10:08:31;2.35;;;2.25;;
67378;SDS011;54262;44.642;-0.974;2023-06-24T10:10:58;2.50;;;2.40;;
67378;SDS011;54262;44.642;-0.974;2023-06-24T10:13:25;2.65;;;2.50;;
67378;SDS011;54262;44.642;-0.974;2023-06-24T10:15:51;1.90;;;1.80;;
67378;SDS011;54262;44.642;-0.974;2023-06-24T10:18:33;2.67;;;2.47;;
67378;SDS011;54262;44.642;-0.974;2023-06-24T10:21:00;2.45;;;2.35;;
67378;SDS011;54262;44.642;-0.974;2023-06-24T10:23:31;6.75;;;2.80;;
67378;SDS011;54262;44.642;-0.974;2023-06-24T10:44:54;2.72;;;2.63;;
67378;SDS011;54262;44.642;-0.974;2023-06-24T10:47:24;2.78;;;2.65;;
67378;SDS011;54262;44.642;-0.974;2023-06-24T10:49:52;3.42;;;2.70;;
67378;SDS011;54262;44.642;-0.974;2023-06-24T10:52:18;3.70;;;2.20;;
67378;SDS011;54262;44.642;-0.974;2023-06-24T10:54:51;2.22;;;2.13;;
67378;SDS011;54262;44.642;-0.974;2023-06-24T10:57:21;2.83;;;2.72;;
67378;SDS011;54262;44.642;-0.974;2023-06-24T10:59:48;2.85;;;2.65;;
67378;SDS011;54262;44.642;-0.974;2023-06-24T11:02:17;11.65;;;2.53;;
67378;SDS011;54262;44.642;-0.974;2023-06-24T11:05:00;2.30;;;2.20;;
67378;SDS011;54262;44.642;-0.974;2023-06-24T11:07:27;2.42;;;2.33;;
67378;SDS011;54262;44.642;-0.974;2023-06-24T11:10:00;2.88;;;2.70;;
67378;SDS011;54262;44.642;-0.974;2023-06-24T11:12:34;2.28;;;2.08;;
67378;SDS011;54262;44.642;-0.974;2023-06-24T11:15:10;2.30;;;2.20;;
67378;SDS011;54262;44.642;-0.974;2023-06-24T11:17:37;7.22;;;2.40;;
67378;SDS011;54262;44.642;-0.974;2023-06-24T11:20:11;4.15;;;2.90;;
67378;SDS011;54262;44.642;-0.974;2023-06-24T11:22:39;2.78;;;2.67;;
67378;SDS011;54262;44.642;-0.974;2023-06-24T11:25:05;3.65;;;2.65;;
67378;SDS011;54262;44.642;-0.974;2023-06-24T11:27:31;3.63;;;2.22;;
67378;SDS011;54262;44.642;-0.974;2023-06-24T11:29:57;2.55;;;2.45;;
67378;SDS011;54262;44.642;-0.974;2023-06-24T11:32:36;4.68;;;1.95;;
67378;SDS011;54262;44.642;-0.974;2023-06-24T11:35:05;2.30;;;2.20;;
67378;SDS011;54262;44.642;-0.974;2023-06-24T11:37:33;4.22;;;2.55;;
67378;SDS011;54262;44.642;-0.974;2023-06-24T11:42:31;2.08;;;1.98;;
67378;SDS011;54262;44.642;-0.974;2023-06-24T11:45:03;2.55;;;2.45;;
67378;SDS011;54262;44.642;-0.974;2023-06-24T11:47:31;4.35;;;2.80;;
67378;SDS011;54262;44.642;-0.974;2023-06-24T11:50:01;2.30;;;2.20;;
67378;SDS011;54262;44.642;-0.974;2023-06-24T11:52:47;2.90;;;2.80;;
67378;SDS011;54262;44.642;-0.974;2023-06-24T11:55:19;9.68;;;2.58;;
67378;SDS011;54262;44.642;-0.974;2023-06-24T11:57:50;2.67;;;2.50;;
67378;SDS011;54262;44.642;-0.974;2023-06-24T12:00:21;2.53;;;2.40;;
67378;SDS011;54262;44.642;-0.974;2023-06-24T12:05:47;2.72;;;2.53;;
67378;SDS011;54262;44.642;-0.974;2023-06-24T12:08:13;2.60;;;2.42;;
67378;SDS011;54262;44.642;-0.974;2023-06-24T12:10:40;3.17;;;2.40;;
67378;SDS011;54262;44.642;-0.974;2023-06-24T12:13:06;2.75;;;2.55;;
67378;SDS011;54262;44.642;-0.974;2023-06-24T12:15:33;2.20;;;2.10;;
67378;SDS011;54262;44.642;-0.974;2023-06-24T12:17:59;2.15;;;2.05;;
67378;SDS011;54262;44.642;-0.974;2023-06-24T12:20:26;2.60;;;2.50;;
67378;SDS011;54262;44.642;-0.974;2023-06-24T12:22:53;2.80;;;2.60;;
67378;SDS011;54262;44.642;-0.974;2023-06-24T12:25:19;3.00;;;2.83;;
67378;SDS011;54262;44.642;-0.974;2023-06-24T12:27:45;2.78;;;2.30;;
67378;SDS011;54262;44.642;-0.974;2023-06-24T12:30:11;2.88;;;2.78;;
67378;SDS011;54262;44.642;-0.974;2023-06-24T12:32:37;4.10;;;3.20;;
67378;SDS011;54262;44.642;-0.974;2023-06-24T12:35:03;2.83;;;2.72;;
67378;SDS011;54262;44.642;-0.974;2023-06-24T12:37:30;2.45;;;2.35;;
67378;SDS011;54262;44.642;-0.974;2023-06-24T12:40:00;3.30;;;2.50;;
67378;SDS011;54262;44.642;-0.974;2023-06-24T12:42:26;2.63;;;2.53;;
67378;SDS011;54262;44.642;-0.974;2023-06-24T12:44:52;8.55;;;2.88;;
67378;SDS011;54262;44.642;-0.974;2023-06-24T12:47:18;2.78;;;2.47;;
67378;SDS011;54262;44.642;-0.974;2023-06-24T12:49:44;2.47;;;2.38;;
67378;SDS011;54262;44.642;-0.974;2023-06-24T12:52:12;2.47;;;2.30;;
67378;SDS011;54262;44.642;-0.974;2023-06-24T12:54:38;6.90;;;2.80;;
67378;SDS011;54262;44.642;-0.974;2023-06-24T12:57:06;2.15;;;2.05;;
67378;SDS011;54262;44.642;-0.974;2023-06-24T12:59:32;2.30;;;2.20;;
67378;SDS011;54262;44.642;-0.974;2023-06-24T13:01:57;2.17;;;2.08;;
67378;SDS011;54262;44.642;-0.974;2023-06-24T13:04:23;2.65;;;2.50;;
67378;SDS011;54262;44.642;-0.974;2023-06-24T13:06:50;2.45;;;2.35;;
67378;SDS011;54262;44.642;-0.974;2023-06-24T13:09:16;4.72;;;2.00;;
67378;SDS011;54262;44.642;-0.974;2023-06-24T13:11:42;2.50;;;2.40;;
67378;SDS011;54262;44.642;-0.974;2023-06-24T13:14:08;2.17;;;2.08;;
67378;SDS011;54262;44.642;-0.974;2023-06-24T13:16:35;2.40;;;2.30;;
67378;SDS011;54262;44.642;-0.974;2023-06-24T13:19:03;2.47;;;2.38;;
67378;SDS011;54262;44.642;-0.974;2023-06-24T13:21:29;1.95;;;1.85;;
67378;SDS011;54262;44.642;-0.974;2023-06-24T13:23:55;2.75;;;2.65;;
67378;SDS011;54262;44.642;-0.974;2023-06-24T13:26:21;2.53;;;2.42;;
67378;SDS011;54262;44.642;-0.974;2023-06-24T13:28:47;2.25;;;2.13;;
67378;SDS011;54262;44.642;-0.974;2023-06-24T13:31:14;2.30;;;2.20;;
67378;SDS011;54262;44.642;-0.974;2023-06-24T13:33:40;2.35;;;2.25;;
67378;SDS011;54262;44.642;-0.974;2023-06-24T13:36:07;1.88;;;1.77;;
67378;SDS011;54262;44.642;-0.974;2023-06-24T13:38:36;2.78;;;2.67;;
67378;SDS011;54262;44.642;-0.974;2023-06-24T13:41:02;2.13;;;2.00;;
67378;SDS011;54262;44.642;-0.974;2023-06-24T13:43:28;2.35;;;2.25;;
67378;SDS011;54262;44.642;-0.974;2023-06-24T13:45:54;3.40;;;3.10;;
67378;SDS011;54262;44.642;-0.974;2023-06-24T13:48:19;2.72;;;2.63;;
67378;SDS011;54262;44.642;-0.974;2023-06-24T13:50:45;2.17;;;2.03;;
67378;SDS011;54262;44.642;-0.974;2023-06-24T13:53:13;2.58;;;2.47;;
67378;SDS011;54262;44.642;-0.974;2023-06-24T13:55:39;2.30;;;2.20;;
67378;SDS011;54262;44.642;-0.974;2023-06-24T13:58:06;7.57;;;2.50;;
67378;SDS011;54262;44.642;-0.974;2023-06-24T14:00:32;2.30;;;1.98;;
67378;SDS011;54262;44.642;-0.974;2023-06-24T14:03:01;2.25;;;2.15;;
67378;SDS011;54262;44.642;-0.974;2023-06-24T14:05:26;2.38;;;2.28;;
67378;SDS011;54262;44.642;-0.974;2023-06-24T14:07:52;3.42;;;2.60;;
67378;SDS011;54262;44.642;-0.974;2023-06-24T14:10:18;2.35;;;2.25;;
67378;SDS011;54262;44.642;-0.974;2023-06-24T14:12:43;3.53;;;1.90;;
67378;SDS011;54262;44.642;-0.974;2023-06-24T14:15:09;2.30;;;2.20;;
67378;SDS011;54262;44.642;-0.974;2023-06-24T14:17:35;2.75;;;2.58;;
67378;SDS011;54262;44.642;-0.974;2023-06-24T14:20:04;2.03;;;1.92;;
67378;SDS011;54262;44.642;-0.974;2023-06-24T14:22:31;1.83;;;1.73;;
67378;SDS011;54262;44.642;-0.974;2023-06-24T14:24:56;2.25;;;2.15;;
67378;SDS011;54262;44.642;-0.974;2023-06-24T14:27:22;2.22;;;2.13;;
67378;SDS011;54262;44.642;-0.974;2023-06-24T14:29:48;2.50;;;2.40;;
67378;SDS011;54262;44.642;-0.974;2023-06-24T14:32:13;2.55;;;2.35;;
67378;SDS011;54262;44.642;-0.974;2023-06-24T14:34:42;2.08;;;1.98;;
67378;SDS011;54262;44.642;-0.974;2023-06-24T14:37:08;2.38;;;2.10;;
67378;SDS011;54262;44.642;-0.974;2023-06-24T14:39:33;2.85;;;2.20;;
67378;SDS011;54262;44.642;-0.974;2023-06-24T14:41:59;2.33;;;1.83;;
67378;SDS011;54262;44.642;-0.974;2023-06-24T14:44:25;4.03;;;2.20;;
67378;SDS011;54262;44.642;-0.974;2023-06-24T14:46:50;2.58;;;2.00;;
67378;SDS011;54262;44.642;-0.974;2023-06-24T14:49:16;2.15;;;2.05;;
67378;SDS011;54262;44.642;-0.974;2023-06-24T14:51:42;4.05;;;2.08;;
67378;SDS011;54262;44.642;-0.974;2023-06-24T14:54:10;2.10;;;2.00;;
67378;SDS011;54262;44.642;-0.974;2023-06-24T14:56:36;2.30;;;2.10;;
67378;SDS011;54262;44.642;-0.974;2023-06-24T14:59:03;2.38;;;2.03;;
67378;SDS011;54262;44.642;-0.974;2023-06-24T15:01:29;2.00;;;1.90;;
67378;SDS011;54262;44.642;-0.974;2023-06-24T15:03:55;1.95;;;1.85;;
67378;SDS011;54262;44.642;-0.974;2023-06-24T15:06:20;2.33;;;2.22;;
67378;SDS011;54262;44.642;-0.974;2023-06-24T15:08:46;2.08;;;1.98;;
67378;SDS011;54262;44.642;-0.974;2023-06-24T15:11:12;2.20;;;2.10;;